Time;durP1;ratioP1;P1;durP2;ratioP2;P2;SDS_P1;SDS_P2;PMS_P1;PMS_P2;Temp;Humidity;BMP_temperature;BMP_pressure;BME280_temperature;BME280_humidity;BME280_pressure;Samples;Min_cycle;Max_cycle;Signal;HPM_P1;HPM_P2
2022/08/21 00:00:29;;;;;;;13.60;9.63;;;;;;;;;;5054950;28;20068;-51
2022/08/21 00:03:01;;;;;;;11.25;8.10;;;;;;;;;;5055093;28;20048;-53
2022/08/21 00:05:33;;;;;;;11.73;8.60;;;;;;;;;;5055107;28;20053;-54
2022/08/21 00:08:04;;;;;;;11.68;8.93;;;;;;;;;;5054677;28;20045;-50
2022/08/21 00:10:31;;;;;;;10.40;8.23;;;;;;;;;;5054847;28;20053;-54
2022/08/21 00:13:00;;;;;;;11.23;8.10;;;;;;;;;;5054585;28;20049;-50
2022/08/21 00:15:30;;;;;;;11.45;8.32;;;;;;;;;;5054490;28;20049;-51
2022/08/21 00:18:00;;;;;;;12.18;8.82;;;;;;;;;;5054486;28;20489;-51
2022/08/21 00:20:27;;;;;;;11.70;7.88;;;;;;;;;;5054890;28;20150;-52
2022/08/21 00:22:55;;;;;;;9.65;7.15;;;;;;;;;;5054133;28;20053;-50
2022/08/21 00:25:23;;;;;;;7.38;6.05;;;;;;;;;;5054198;28;20049;-52
2022/08/21 00:27:51;;;;;;;9.15;6.75;;;;;;;;;;5053434;28;20051;-50
2022/08/21 00:30:19;;;;;;;9.40;6.60;;;;;;;;;;5053671;28;20128;-52
2022/08/21 00:32:50;;;;;;;8.15;5.70;;;;;;;;;;5053861;28;20052;-50
2022/08/21 00:35:20;;;;;;;7.07;5.43;;;;;;;;;;5054442;28;20057;-53
2022/08/21 00:37:48;;;;;;;7.05;5.32;;;;;;;;;;5054327;28;20049;-51
2022/08/21 00:40:20;;;;;;;7.15;4.97;;;;;;;;;;5054117;28;20524;-54
2022/08/21 00:42:47;;;;;;;5.50;4.30;;;;;;;;;;5054022;28;20477;-50
2022/08/21 00:45:16;;;;;;;6.47;5.03;;;;;;;;;;5054469;28;20052;-52
2022/08/21 00:47:43;;;;;;;7.22;5.60;;;;;;;;;;5054069;28;20067;-50
2022/08/21 00:50:13;;;;;;;8.27;5.03;;;;;;;;;;5054278;28;20063;-50
2022/08/21 00:52:42;;;;;;;5.55;4.30;;;;;;;;;;5053375;28;20762;-52
2022/08/21 00:55:10;;;;;;;7.97;4.93;;;;;;;;;;5053671;28;20072;-51
2022/08/21 00:57:41;;;;;;;7.68;4.53;;;;;;;;;;5053634;28;20064;-53
2022/08/21 01:00:10;;;;;;;6.32;4.53;;;;;;;;;;5053896;28;20061;-50
2022/08/21 01:02:38;;;;;;;6.00;4.70;;;;;;;;;;5053828;28;20049;-52
2022/08/21 01:05:06;;;;;;;4.78;3.72;;;;;;;;;;5053921;28;20632;-52
2022/08/21 01:07:38;;;;;;;6.45;4.45;;;;;;;;;;5053323;28;20056;-54
2022/08/21 01:10:06;;;;;;;4.57;3.53;;;;;;;;;;5053666;28;20107;-53
2022/08/21 01:12:34;;;;;;;6.45;4.90;;;;;;;;;;5053699;28;20063;-52
2022/08/21 01:15:03;;;;;;;5.32;4.32;;;;;;;;;;5053725;28;20131;-53
2022/08/21 01:17:31;;;;;;;5.78;4.65;;;;;;;;;;5040938;28;20055;-51
2022/08/21 01:19:59;;;;;;;5.30;4.10;;;;;;;;;;5053478;28;20134;-53
2022/08/21 01:22:28;;;;;;;5.55;4.05;;;;;;;;;;5053454;28;20150;-50
2022/08/21 01:24:56;;;;;;;4.80;3.67;;;;;;;;;;5053668;28;20063;-53
2022/08/21 01:27:24;;;;;;;5.03;3.78;;;;;;;;;;5053401;28;20041;-52
2022/08/21 01:29:54;;;;;;;4.28;3.58;;;;;;;;;;5053552;28;20059;-52
2022/08/21 01:32:21;;;;;;;5.85;4.55;;;;;;;;;;5052780;28;20060;-50
2022/08/21 01:34:50;;;;;;;5.93;3.72;;;;;;;;;;5053169;28;20075;-49
2022/08/21 01:37:16;;;;;;;5.47;4.35;;;;;;;;;;5052823;28;20052;-52
2022/08/21 01:39:44;;;;;;;5.90;4.07;;;;;;;;;;5053125;28;20049;-52
2022/08/21 01:42:12;;;;;;;7.80;5.55;;;;;;;;;;5052983;28;20053;-53
2022/08/21 01:44:39;;;;;;;6.40;4.90;;;;;;;;;;5052543;28;20451;-49
2022/08/21 01:47:10;;;;;;;7.70;5.72;;;;;;;;;;5052900;28;20055;-50
2022/08/21 01:49:37;;;;;;;7.70;4.82;;;;;;;;;;5053362;28;20057;-50
2022/08/21 01:52:05;;;;;;;5.85;4.43;;;;;;;;;;5052603;28;20365;-51
2022/08/21 01:54:33;;;;;;;6.70;4.63;;;;;;;;;;5052683;28;20496;-51
2022/08/21 01:57:08;;;;;;;5.35;4.28;;;;;;;;;;5052848;28;20049;-52
2022/08/21 01:59:35;;;;;;;6.65;5.18;;;;;;;;;;5052869;28;20498;-49
2022/08/21 02:02:03;;;;;;;6.13;4.82;;;;;;;;;;5052702;28;20079;-50
2022/08/21 02:04:31;;;;;;;5.03;3.88;;;;;;;;;;5052581;28;20358;-49
2022/08/21 02:06:59;;;;;;;4.38;3.58;;;;;;;;;;5052764;28;20053;-51
2022/08/21 02:09:25;;;;;;;5.03;4.07;;;;;;;;;;5052853;28;20045;-53
2022/08/21 02:11:53;;;;;;;5.03;3.65;;;;;;;;;;5053055;28;20049;-50
2022/08/21 02:14:22;;;;;;;5.35;4.30;;;;;;;;;;5052973;28;20057;-50
2022/08/21 02:16:50;;;;;;;5.18;3.85;;;;;;;;;;5052722;28;20049;-50
2022/08/21 02:19:18;;;;;;;4.70;4.00;;;;;;;;;;5052899;28;20045;-50
2022/08/21 02:21:45;;;;;;;7.07;4.40;;;;;;;;;;5053041;28;20049;-51
2022/08/21 02:24:15;;;;;;;3.53;2.50;;;;;;;;;;5052127;28;20049;-53
2022/08/21 02:26:42;;;;;;;4.70;3.78;;;;;;;;;;5053055;28;20168;-53
2022/08/21 02:29:10;;;;;;;5.30;4.07;;;;;;;;;;5052410;28;20381;-53
2022/08/21 02:31:39;;;;;;;4.28;3.38;;;;;;;;;;5052164;28;20143;-51
2022/08/21 02:34:06;;;;;;;4.70;3.50;;;;;;;;;;5052776;28;20053;-52
2022/08/21 02:36:34;;;;;;;4.90;3.58;;;;;;;;;;5052417;28;20385;-50
2022/08/21 02:39:02;;;;;;;4.70;3.60;;;;;;;;;;5052603;28;20052;-50
2022/08/21 02:41:30;;;;;;;6.07;4.32;;;;;;;;;;5052033;28;20366;-50
2022/08/21 02:43:57;;;;;;;6.38;4.07;;;;;;;;;;5052374;28;20053;-52
2022/08/21 02:46:24;;;;;;;6.68;5.00;;;;;;;;;;5052314;28;20064;-49
2022/08/21 02:48:53;;;;;;;5.70;4.32;;;;;;;;;;5052270;28;20059;-51
2022/08/21 02:51:22;;;;;;;4.80;3.75;;;;;;;;;;5052995;28;20068;-52
2022/08/21 02:53:50;;;;;;;5.95;4.60;;;;;;;;;;5052706;28;20057;-53
2022/08/21 02:56:18;;;;;;;6.05;4.43;;;;;;;;;;5055782;28;20048;-50
2022/08/21 02:58:48;;;;;;;5.97;4.72;;;;;;;;;;5056153;28;20055;-52
2022/08/21 03:01:19;;;;;;;6.25;4.93;;;;;;;;;;5055948;28;20049;-50
2022/08/21 03:03:49;;;;;;;5.35;4.03;;;;;;;;;;5055909;28;20057;-53
2022/08/21 03:06:19;;;;;;;7.25;5.15;;;;;;;;;;5056141;28;20056;-51
2022/08/21 03:08:46;;;;;;;5.75;3.78;;;;;;;;;;5055737;28;20052;-50
2022/08/21 03:11:15;;;;;;;5.18;4.45;;;;;;;;;;5055521;28;20075;-52
2022/08/21 03:13:45;;;;;;;6.07;4.55;;;;;;;;;;5055624;28;20060;-50
2022/08/21 03:16:11;;;;;;;5.93;4.47;;;;;;;;;;5055404;28;20048;-53
2022/08/21 03:18:39;;;;;;;6.65;4.40;;;;;;;;;;5055497;28;20048;-52
2022/08/21 03:21:07;;;;;;;5.80;4.53;;;;;;;;;;5055595;28;20052;-51
2022/08/21 03:23:36;;;;;;;5.70;4.47;;;;;;;;;;5055744;28;20045;-49
2022/08/21 03:26:04;;;;;;;6.63;4.82;;;;;;;;;;5055941;28;20080;-52
2022/08/21 03:28:32;;;;;;;7.03;4.90;;;;;;;;;;5055224;28;20416;-51
2022/08/21 03:30:59;;;;;;;6.05;4.50;;;;;;;;;;5054880;28;20545;-49
2022/08/21 03:33:29;;;;;;;6.70;4.68;;;;;;;;;;5055362;28;20053;-50
2022/08/21 03:36:01;;;;;;;8.60;6.13;;;;;;;;;;5055112;28;20665;-53
2022/08/21 03:38:30;;;;;;;6.68;4.82;;;;;;;;;;5055190;28;20052;-52
2022/08/21 03:41:05;;;;;;;6.18;4.63;;;;;;;;;;5054736;28;20106;-50
2022/08/21 03:43:33;;;;;;;7.97;5.53;;;;;;;;;;5054601;28;20343;-50
2022/08/21 03:46:01;;;;;;;5.95;4.45;;;;;;;;;;5054677;28;20168;-51
2022/08/21 03:48:32;;;;;;;5.70;3.97;;;;;;;;;;5054947;28;20048;-53
2022/08/21 03:51:02;;;;;;;5.97;4.82;;;;;;;;;;5055265;28;20063;-50
2022/08/21 03:53:30;;;;;;;5.55;4.57;;;;;;;;;;5055101;28;20059;-53
2022/08/21 03:55:59;;;;;;;7.53;4.97;;;;;;;;;;5055418;28;20053;-50
2022/08/21 03:58:28;;;;;;;7.30;5.10;;;;;;;;;;5055024;28;20049;-50
2022/08/21 04:00:56;;;;;;;7.47;5.53;;;;;;;;;;5055122;28;20076;-49
2022/08/21 04:03:24;;;;;;;7.80;4.80;;;;;;;;;;5055110;28;20083;-49
2022/08/21 04:05:52;;;;;;;4.97;3.90;;;;;;;;;;5055015;28;20057;-49
2022/08/21 04:08:19;;;;;;;7.22;5.15;;;;;;;;;;5054620;28;20146;-50
2022/08/21 04:10:49;;;;;;;8.95;6.20;;;;;;;;;;5055063;28;20049;-50
2022/08/21 04:13:21;;;;;;;7.00;5.50;;;;;;;;;;5054879;28;20045;-50
2022/08/21 04:15:49;;;;;;;5.57;4.18;;;;;;;;;;5054508;28;20052;-50
2022/08/21 04:18:16;;;;;;;6.95;4.35;;;;;;;;;;5054711;28;20045;-52
2022/08/21 04:20:45;;;;;;;8.00;5.47;;;;;;;;;;5054833;28;20124;-51
2022/08/21 04:23:12;;;;;;;8.35;5.07;;;;;;;;;;5054606;28;20064;-51
2022/08/21 04:25:40;;;;;;;8.60;5.05;;;;;;;;;;5054338;28;20446;-49
2022/08/21 04:28:07;;;;;;;5.80;4.32;;;;;;;;;;5054675;28;20081;-50
2022/08/21 04:30:36;;;;;;;8.10;5.05;;;;;;;;;;5054381;28;20054;-50
2022/08/21 04:33:04;;;;;;;8.13;4.75;;;;;;;;;;5054409;28;20045;-50
2022/08/21 04:35:32;;;;;;;7.30;5.47;;;;;;;;;;5054289;28;20106;-49
2022/08/21 04:38:00;;;;;;;7.80;5.18;;;;;;;;;;5054446;28;20049;-50
2022/08/21 04:40:28;;;;;;;7.32;5.35;;;;;;;;;;5054251;28;20049;-49
2022/08/21 04:42:58;;;;;;;7.68;4.53;;;;;;;;;;5054226;28;20056;-53
2022/08/21 04:45:28;;;;;;;10.23;5.78;;;;;;;;;;5054343;28;20131;-50
2022/08/21 04:47:57;;;;;;;8.00;5.50;;;;;;;;;;5053878;28;20331;-50
2022/08/21 04:50:27;;;;;;;5.95;4.50;;;;;;;;;;5054536;28;20055;-50
2022/08/21 04:52:55;;;;;;;7.03;5.50;;;;;;;;;;5053812;28;20063;-52
2022/08/21 04:55:24;;;;;;;6.90;5.15;;;;;;;;;;5054184;28;20049;-51
2022/08/21 04:57:53;;;;;;;7.35;5.22;;;;;;;;;;5053603;28;20359;-53
2022/08/21 05:00:21;;;;;;;6.25;4.40;;;;;;;;;;5053975;28;20067;-50
2022/08/21 05:02:49;;;;;;;8.93;5.60;;;;;;;;;;5053747;28;20056;-53
2022/08/21 05:05:19;;;;;;;5.95;4.90;;;;;;;;;;5053949;28;20045;-52
2022/08/21 05:07:47;;;;;;;10.27;6.00;;;;;;;;;;5053482;28;20393;-50
2022/08/21 05:10:15;;;;;;;5.60;4.15;;;;;;;;;;5053688;28;20057;-52
2022/08/21 05:12:43;;;;;;;6.50;4.88;;;;;;;;;;5053595;28;20052;-51
2022/08/21 05:15:12;;;;;;;7.10;5.38;;;;;;;;;;5053453;28;20143;-53
2022/08/21 05:17:41;;;;;;;7.85;5.28;;;;;;;;;;5052856;28;20049;-50
2022/08/21 05:20:09;;;;;;;6.05;3.92;;;;;;;;;;5048366;28;20037;-50
2022/08/21 05:22:41;;;;;;;7.53;4.70;;;;;;;;;;5046498;28;20050;-51
2022/08/21 05:25:09;;;;;;;7.30;5.07;;;;;;;;;;5033707;28;20079;-51
2022/08/21 05:27:39;;;;;;;5.07;4.05;;;;;;;;;;5033591;28;20057;-50
2022/08/21 05:30:08;;;;;;;6.03;4.00;;;;;;;;;;5033340;28;20143;-49
2022/08/21 05:32:36;;;;;;;6.60;4.22;;;;;;;;;;5033114;28;20526;-51
2022/08/21 05:35:05;;;;;;;5.68;3.72;;;;;;;;;;5033227;28;20473;-51
2022/08/21 05:37:34;;;;;;;6.00;4.53;;;;;;;;;;5033165;28;20045;-49
2022/08/21 05:40:04;;;;;;;9.75;4.97;;;;;;;;;;5033171;28;20056;-53
2022/08/21 05:42:31;;;;;;;6.45;4.80;;;;;;;;;;5032927;28;20732;-51
2022/08/21 05:44:57;;;;;;;7.85;4.50;;;;;;;;;;5033148;28;20063;-53
2022/08/21 05:47:25;;;;;;;5.40;4.30;;;;;;;;;;5039141;28;20049;-49
2022/08/21 05:49:52;;;;;;;7.75;6.15;;;;;;;;;;5053019;28;20049;-49
2022/08/21 05:52:21;;;;;;;7.40;5.47;;;;;;;;;;5052970;28;20518;-51
2022/08/21 05:54:53;;;;;;;8.32;6.00;;;;;;;;;;5052782;28;20055;-50
2022/08/21 05:57:23;;;;;;;7.45;5.40;;;;;;;;;;5052980;28;20145;-50
2022/08/21 05:59:50;;;;;;;9.15;5.38;;;;;;;;;;5053186;28;20045;-49
2022/08/21 06:02:18;;;;;;;6.22;4.75;;;;;;;;;;5053196;28;20138;-49
2022/08/21 06:04:45;;;;;;;6.40;4.03;;;;;;;;;;5052712;28;20068;-51
2022/08/21 06:07:13;;;;;;;4.78;3.45;;;;;;;;;;5052802;28;20583;-52
2022/08/21 06:09:40;;;;;;;4.70;3.20;;;;;;;;;;5053043;28;20056;-52
2022/08/21 06:12:09;;;;;;;4.65;3.60;;;;;;;;;;5053247;28;20076;-49
2022/08/21 06:14:38;;;;;;;7.13;4.22;;;;;;;;;;5053035;28;20059;-49
2022/08/21 06:17:07;;;;;;;3.80;3.03;;;;;;;;;;5052719;28;20059;-53
2022/08/21 06:19:35;;;;;;;5.03;3.58;;;;;;;;;;5052983;28;20048;-49
2022/08/21 06:22:03;;;;;;;4.65;3.47;;;;;;;;;;5051134;28;20049;-50
2022/08/21 06:24:32;;;;;;;4.70;3.15;;;;;;;;;;5033043;28;20053;-50
2022/08/21 06:26:58;;;;;;;4.25;3.08;;;;;;;;;;5045829;28;20652;-50
2022/08/21 06:29:26;;;;;;;4.20;3.22;;;;;;;;;;5053061;28;20061;-50
2022/08/21 06:31:55;;;;;;;4.50;3.22;;;;;;;;;;5056122;28;20437;-52
2022/08/21 06:34:23;;;;;;;6.07;3.67;;;;;;;;;;5051842;28;20056;-52
2022/08/21 06:36:50;;;;;;;4.78;3.40;;;;;;;;;;5046009;28;20052;-50
2022/08/21 06:39:18;;;;;;;5.50;3.13;;;;;;;;;;5048520;28;20052;-50
2022/08/21 06:41:47;;;;;;;5.47;3.28;;;;;;;;;;5054472;28;20055;-50
2022/08/21 06:44:19;;;;;;;4.80;3.90;;;;;;;;;;5050812;28;20045;-52
2022/08/21 06:46:49;;;;;;;4.53;3.17;;;;;;;;;;5044698;28;20053;-49
2022/08/21 06:49:22;;;;;;;4.95;3.08;;;;;;;;;;5036136;28;20049;-49
2022/08/21 06:51:50;;;;;;;4.95;3.50;;;;;;;;;;5051697;28;20059;-52
2022/08/21 06:54:20;;;;;;;5.05;3.63;;;;;;;;;;5056125;28;20369;-50
2022/08/21 06:56:47;;;;;;;5.10;3.50;;;;;;;;;;5056455;28;20063;-50
2022/08/21 06:59:14;;;;;;;5.00;3.47;;;;;;;;;;5056508;28;20048;-50
2022/08/21 07:01:41;;;;;;;5.25;3.35;;;;;;;;;;5056445;28;20064;-52
2022/08/21 07:04:09;;;;;;;6.38;3.78;;;;;;;;;;5055110;28;20048;-49
2022/08/21 07:06:37;;;;;;;5.13;3.58;;;;;;;;;;5055890;28;20057;-53
2022/08/21 07:09:03;;;;;;;3.47;2.75;;;;;;;;;;5039046;28;20533;-49
2022/08/21 07:11:29;;;;;;;4.43;2.97;;;;;;;;;;5036415;28;20049;-50
2022/08/21 07:13:56;;;;;;;4.53;3.10;;;;;;;;;;5050174;28;20061;-51
2022/08/21 07:16:22;;;;;;;3.63;2.85;;;;;;;;;;5055069;28;20136;-52
2022/08/21 07:18:49;;;;;;;4.05;2.55;;;;;;;;;;5041851;28;20402;-50
2022/08/21 07:21:15;;;;;;;7.07;3.13;;;;;;;;;;5042621;28;20049;-53
2022/08/21 07:23:44;;;;;;;8.00;3.85;;;;;;;;;;5047399;28;20049;-53
2022/08/21 07:26:11;;;;;;;7.30;3.97;;;;;;;;;;5055658;28;20118;-53
2022/08/21 07:28:37;;;;;;;4.55;3.20;;;;;;;;;;5055882;28;20048;-51
2022/08/21 07:31:04;;;;;;;5.10;3.65;;;;;;;;;;5055412;28;20061;-50
2022/08/21 07:33:32;;;;;;;5.85;3.60;;;;;;;;;;5055252;28;20054;-49
2022/08/21 07:35:58;;;;;;;6.68;3.35;;;;;;;;;;5055924;28;20071;-50
2022/08/21 07:38:24;;;;;;;4.97;3.10;;;;;;;;;;5055607;28;20053;-49
2022/08/21 07:40:53;;;;;;;4.22;3.00;;;;;;;;;;5055077;28;20057;-49
2022/08/21 07:43:19;;;;;;;5.00;3.35;;;;;;;;;;5046024;28;20060;-52
2022/08/21 07:45:46;;;;;;;6.70;3.15;;;;;;;;;;5035323;28;20159;-52
2022/08/21 07:48:12;;;;;;;9.93;3.58;;;;;;;;;;5047798;28;20053;-53
2022/08/21 07:50:39;;;;;;;3.60;2.80;;;;;;;;;;5055142;28;20156;-54
2022/08/21 07:53:05;;;;;;;3.90;2.85;;;;;;;;;;5055295;28;20049;-50
2022/08/21 07:55:31;;;;;;;5.03;3.53;;;;;;;;;;5055788;28;20057;-52
2022/08/21 07:57:59;;;;;;;3.78;2.80;;;;;;;;;;5047626;28;20057;-51
2022/08/21 08:00:27;;;;;;;2.80;2.13;;;;;;;;;;5048807;28;20049;-51
2022/08/21 08:02:54;;;;;;;4.13;3.38;;;;;;;;;;5054079;28;20748;-50
2022/08/21 08:05:22;;;;;;;3.60;2.80;;;;;;;;;;5055212;28;20139;-51
2022/08/21 08:07:48;;;;;;;4.88;2.97;;;;;;;;;;5054375;28;20637;-51
2022/08/21 08:10:15;;;;;;;4.60;3.25;;;;;;;;;;5055202;28;20124;-53
2022/08/21 08:12:42;;;;;;;4.97;2.90;;;;;;;;;;5054835;28;20056;-54
2022/08/21 08:15:12;;;;;;;3.67;2.63;;;;;;;;;;5036509;28;20049;-53
2022/08/21 08:17:38;;;;;;;4.45;2.65;;;;;;;;;;5054849;28;20049;-53
2022/08/21 08:20:05;;;;;;;4.97;2.88;;;;;;;;;;5048950;28;20068;-50
2022/08/21 08:22:31;;;;;;;4.95;3.00;;;;;;;;;;5049283;28;20077;-54
2022/08/21 08:24:59;;;;;;;3.85;2.72;;;;;;;;;;5053807;28;20057;-52
2022/08/21 08:27:25;;;;;;;4.07;2.63;;;;;;;;;;5050631;28;20063;-52
2022/08/21 08:29:52;;;;;;;3.17;2.53;;;;;;;;;;5053884;28;20060;-52
2022/08/21 08:32:20;;;;;;;5.57;2.85;;;;;;;;;;5051932;28;20477;-51
2022/08/21 08:34:48;;;;;;;3.13;2.30;;;;;;;;;;5053621;28;20053;-55
2022/08/21 08:37:15;;;;;;;4.43;2.72;;;;;;;;;;5039616;28;20049;-52
2022/08/21 08:39:50;;;;;;;6.05;2.92;;;;;;;;;;5052314;28;20466;-52
2022/08/21 08:42:21;;;;;;;3.65;2.70;;;;;;;;;;5046094;28;20757;-53
2022/08/21 08:44:47;;;;;;;4.70;2.72;;;;;;;;;;5053147;28;20489;-56
2022/08/21 08:47:15;;;;;;;4.65;3.17;;;;;;;;;;5053632;28;20052;-54
2022/08/21 08:49:45;;;;;;;4.55;3.20;;;;;;;;;;5053548;28;20076;-55
2022/08/21 08:52:16;;;;;;;3.55;2.83;;;;;;;;;;5053907;28;20068;-53
2022/08/21 08:54:44;;;;;;;3.92;2.70;;;;;;;;;;5053713;28;20063;-52
2022/08/21 08:57:15;;;;;;;4.47;2.42;;;;;;;;;;5053754;28;20053;-52
2022/08/21 08:59:44;;;;;;;4.53;2.72;;;;;;;;;;5053863;28;20055;-55
2022/08/21 09:02:11;;;;;;;4.97;2.55;;;;;;;;;;5053519;28;20064;-54
2022/08/21 09:04:37;;;;;;;3.58;2.65;;;;;;;;;;5049463;28;20053;-56
2022/08/21 09:07:13;;;;;;;4.43;2.58;;;;;;;;;;5050561;28;20390;-56
2022/08/21 09:09:44;;;;;;;5.38;2.83;;;;;;;;;;5054088;28;20045;-56
2022/08/21 09:12:13;;;;;;;4.55;2.80;;;;;;;;;;5053706;28;20060;-52
2022/08/21 09:14:46;;;;;;;3.90;2.60;;;;;;;;;;5048137;28;20061;-56
2022/08/21 09:17:18;;;;;;;3.57;2.20;;;;;;;;;;5051718;28;20057;-55
2022/08/21 09:19:49;;;;;;;3.85;2.80;;;;;;;;;;5053248;28;20053;-54
2022/08/21 09:22:20;;;;;;;4.40;2.60;;;;;;;;;;5042269;28;20056;-56
2022/08/21 09:24:50;;;;;;;3.75;2.30;;;;;;;;;;5052112;28;20053;-53
2022/08/21 09:27:17;;;;;;;4.95;2.38;;;;;;;;;;5053048;28;20389;-52
2022/08/21 09:29:44;;;;;;;5.35;2.40;;;;;;;;;;5053465;28;20045;-53
2022/08/21 09:32:15;;;;;;;3.70;2.13;;;;;;;;;;5052993;28;20059;-56
2022/08/21 09:34:41;;;;;;;4.93;2.47;;;;;;;;;;5052267;28;20048;-52
2022/08/21 09:37:18;;;;;;;3.25;2.08;;;;;;;;;;5052883;28;20045;-56
2022/08/21 09:39:44;;;;;;;3.80;2.58;;;;;;;;;;5053414;28;20052;-57
2022/08/21 09:42:11;;;;;;;3.50;1.92;;;;;;;;;;5053547;28;20049;-56
2022/08/21 09:44:40;;;;;;;3.80;2.30;;;;;;;;;;5053621;28;20072;-56
2022/08/21 09:47:07;;;;;;;3.75;2.45;;;;;;;;;;5053331;28;20041;-56
2022/08/21 09:49:34;;;;;;;3.05;2.05;;;;;;;;;;5052096;28;20057;-57
2022/08/21 09:52:01;;;;;;;2.65;2.08;;;;;;;;;;5053577;28;20060;-53
2022/08/21 09:54:30;;;;;;;4.43;2.05;;;;;;;;;;5052637;28;20067;-56
2022/08/21 09:59:43;;;;;;;3.33;2.17;;;;;;;;;;5053001;28;20056;-57
2022/08/21 10:02:24;;;;;;;4.15;2.63;;;;;;;;;;5049947;28;20396;-53
2022/08/21 10:04:51;;;;;;;3.25;2.20;;;;;;;;;;5053789;28;20488;-55
2022/08/21 10:07:20;;;;;;;4.35;2.55;;;;;;;;;;5057260;28;20063;-57
2022/08/21 10:09:58;;;;;;;3.60;2.28;;;;;;;;;;5056976;28;20103;-56
2022/08/21 10:12:27;;;;;;;2.90;1.98;;;;;;;;;;5056527;28;20052;-57
2022/08/21 10:14:59;;;;;;;3.65;2.50;;;;;;;;;;5056792;28;20053;-54
2022/08/21 10:17:28;;;;;;;5.07;2.30;;;;;;;;;;5056847;28;20053;-55
2022/08/21 10:19:56;;;;;;;3.83;2.17;;;;;;;;;;5056704;28;20056;-53
2022/08/21 10:22:29;;;;;;;3.75;2.20;;;;;;;;;;5056749;28;20049;-57
2022/08/21 10:25:01;;;;;;;3.03;2.22;;;;;;;;;;5056449;28;20389;-57
2022/08/21 10:27:31;;;;;;;3.72;2.20;;;;;;;;;;5056630;28;20049;-56
2022/08/21 10:30:00;;;;;;;4.15;1.90;;;;;;;;;;5056799;28;20057;-54
2022/08/21 10:32:34;;;;;;;2.55;1.77;;;;;;;;;;5056036;28;20107;-57
2022/08/21 10:35:08;;;;;;;2.38;1.60;;;;;;;;;;5056731;28;20051;-55
2022/08/21 10:37:40;;;;;;;3.38;1.67;;;;;;;;;;5056352;28;20478;-55
2022/08/21 10:40:15;;;;;;;3.78;1.90;;;;;;;;;;5056302;28;20056;-54
2022/08/21 10:42:41;;;;;;;;;;;;;;;;;;5057038;28;20049;-55
2022/08/21 10:45:14;;;;;;;3.28;1.40;;;;;;;;;;5056572;28;19974;-55
2022/08/21 10:47:43;;;;;;;3.97;1.95;;;;;;;;;;5052351;28;20053;-56
2022/08/21 10:50:13;;;;;;;3.05;1.90;;;;;;;;;;5054014;28;20052;-56
2022/08/21 10:52:47;;;;;;;3.17;1.80;;;;;;;;;;5056304;28;20049;-56
2022/08/21 10:55:17;;;;;;;2.65;2.03;;;;;;;;;;5055182;28;20049;-56
2022/08/21 10:57:46;;;;;;;2.88;1.73;;;;;;;;;;5055630;28;20052;-56
2022/08/21 11:00:14;;;;;;;4.68;2.17;;;;;;;;;;5054894;28;20543;-57
2022/08/21 11:02:43;;;;;;;2.88;1.88;;;;;;;;;;5056053;28;20143;-57
2022/08/21 11:05:12;;;;;;;4.55;2.28;;;;;;;;;;5055655;28;20060;-57
2022/08/21 11:07:44;;;;;;;3.50;2.10;;;;;;;;;;5054714;28;20049;-55
2022/08/21 11:10:13;;;;;;;3.00;1.83;;;;;;;;;;5055361;28;20077;-56
2022/08/21 11:12:42;;;;;;;3.58;1.70;;;;;;;;;;5055430;28;20076;-56
2022/08/21 11:15:15;;;;;;;4.35;1.92;;;;;;;;;;5055495;28;20045;-57
2022/08/21 11:17:44;;;;;;;3.22;1.60;;;;;;;;;;5054774;28;20049;-55
2022/08/21 11:20:13;;;;;;;2.65;1.45;;;;;;;;;;5055763;28;20053;-56
2022/08/21 11:22:41;;;;;;;3.05;1.52;;;;;;;;;;5055654;28;20053;-56
2022/08/21 11:25:10;;;;;;;2.85;1.42;;;;;;;;;;5055514;28;20131;-56
2022/08/21 11:27:39;;;;;;;3.22;1.52;;;;;;;;;;5055386;28;20060;-57
2022/08/21 11:30:08;;;;;;;3.00;1.52;;;;;;;;;;5049429;28;20060;-57
2022/08/21 11:32:42;;;;;;;3.00;1.73;;;;;;;;;;5053734;28;20053;-57
2022/08/21 11:35:11;;;;;;;2.88;1.67;;;;;;;;;;5043622;28;20374;-56
2022/08/21 11:37:46;;;;;;;1.83;1.30;;;;;;;;;;5055185;28;20420;-57
2022/08/21 11:40:16;;;;;;;2.50;1.55;;;;;;;;;;5049070;28;20045;-57
2022/08/21 11:42:46;;;;;;;3.17;1.90;;;;;;;;;;5052429;28;20060;-57
2022/08/21 11:45:20;;;;;;;3.38;1.60;;;;;;;;;;5054850;28;20045;-56
2022/08/21 11:47:52;;;;;;;3.03;1.70;;;;;;;;;;5050132;28;20132;-56
2022/08/21 11:50:19;;;;;;;2.75;1.70;;;;;;;;;;5054982;28;20660;-55
2022/08/21 11:52:49;;;;;;;3.67;2.05;;;;;;;;;;5055198;28;20067;-56
2022/08/21 11:55:19;;;;;;;3.10;1.70;;;;;;;;;;5055267;28;20064;-57
2022/08/21 11:57:50;;;;;;;2.65;1.70;;;;;;;;;;5054046;28;20060;-56
2022/08/21 12:00:20;;;;;;;4.55;1.80;;;;;;;;;;5053852;28;20045;-55
2022/08/21 12:02:50;;;;;;;3.42;1.83;;;;;;;;;;5054731;28;20419;-57
2022/08/21 12:05:24;;;;;;;1.88;1.38;;;;;;;;;;5052914;28;20672;-57
2022/08/21 12:08:00;;;;;;;3.28;1.50;;;;;;;;;;5054865;28;20060;-56
2022/08/21 12:10:32;;;;;;;2.95;1.40;;;;;;;;;;5054660;28;20057;-56
2022/08/21 12:13:08;;;;;;;3.50;1.40;;;;;;;;;;5054427;28;20049;-57
2022/08/21 12:15:35;;;;;;;2.85;1.52;;;;;;;;;;5054111;28;20386;-57
2022/08/21 12:18:03;;;;;;;1.98;1.40;;;;;;;;;;5054526;28;20053;-56
2022/08/21 12:20:38;;;;;;;3.10;1.60;;;;;;;;;;5054030;28;20041;-56
2022/08/21 12:23:07;;;;;;;3.63;1.50;;;;;;;;;;5038017;28;20052;-55
2022/08/21 12:25:38;;;;;;;2.35;1.30;;;;;;;;;;5054339;28;20048;-57
2022/08/21 12:28:07;;;;;;;3.40;1.50;;;;;;;;;;5054020;28;20052;-56
2022/08/21 12:30:34;;;;;;;4.25;1.50;;;;;;;;;;5053856;28;20075;-55
2022/08/21 12:33:04;;;;;;;2.97;1.45;;;;;;;;;;5053790;28;20744;-53
2022/08/21 12:35:33;;;;;;;2.95;1.33;;;;;;;;;;5054097;28;20059;-53
2022/08/21 12:38:01;;;;;;;3.05;0.95;;;;;;;;;;5054104;28;20060;-57
2022/08/21 12:40:39;;;;;;;2.25;1.15;;;;;;;;;;5044737;28;20045;-55
2022/08/21 12:43:06;;;;;;;3.95;1.30;;;;;;;;;;5037940;28;20049;-54
2022/08/21 12:45:33;;;;;;;2.60;1.27;;;;;;;;;;5053588;28;20045;-57
2022/08/21 12:48:02;;;;;;;2.60;1.10;;;;;;;;;;5054013;28;20122;-56
2022/08/21 12:50:36;;;;;;;3.72;1.60;;;;;;;;;;5053486;28;20048;-56
2022/08/21 12:53:05;;;;;;;3.28;1.42;;;;;;;;;;5045502;28;20056;-56
2022/08/21 12:55:33;;;;;;;3.80;1.27;;;;;;;;;;5053356;28;20048;-57
2022/08/21 12:58:00;;;;;;;3.15;1.65;;;;;;;;;;5053504;28;20067;-57
2022/08/21 13:00:27;;;;;;;3.28;1.15;;;;;;;;;;5053295;28;20411;-55
2022/08/21 13:02:54;;;;;;;2.33;1.00;;;;;;;;;;5053565;28;20076;-55
2022/08/21 13:05:24;;;;;;;3.22;1.10;;;;;;;;;;5053677;28;20068;-54
2022/08/21 13:07:52;;;;;;;3.67;1.23;;;;;;;;;;5048167;28;20048;-55
2022/08/21 13:10:20;;;;;;;1.40;1.00;;;;;;;;;;5042415;28;20060;-55
2022/08/21 13:12:48;;;;;;;3.65;1.23;;;;;;;;;;5051763;28;20059;-56
2022/08/21 13:15:14;;;;;;;2.00;1.00;;;;;;;;;;5053838;28;20075;-56
2022/08/21 13:17:43;;;;;;;2.72;1.02;;;;;;;;;;5046301;28;20045;-56
2022/08/21 13:20:19;;;;;;;2.75;1.20;;;;;;;;;;5052118;28;20412;-56
2022/08/21 13:22:45;;;;;;;3.15;1.20;;;;;;;;;;5042345;28;20426;-57
2022/08/21 13:25:13;;;;;;;3.08;0.90;;;;;;;;;;5052764;28;20060;-57
2022/08/21 13:27:40;;;;;;;4.20;1.48;;;;;;;;;;5053028;28;20049;-54
2022/08/21 13:30:09;;;;;;;1.77;0.90;;;;;;;;;;5053143;28;20081;-55
2022/08/21 13:32:38;;;;;;;1.52;1.00;;;;;;;;;;5052511;28;20524;-56
2022/08/21 13:35:12;;;;;;;3.00;1.08;;;;;;;;;;5037052;28;20603;-54
2022/08/21 13:37:40;;;;;;;4.18;1.38;;;;;;;;;;5043092;28;20445;-55
2022/08/21 13:40:08;;;;;;;1.48;0.88;;;;;;;;;;5052175;28;20076;-53
2022/08/21 13:42:36;;;;;;;1.63;1.02;;;;;;;;;;5052799;28;20143;-53
2022/08/21 13:45:02;;;;;;;3.05;1.05;;;;;;;;;;5033277;28;20052;-53
2022/08/21 13:47:28;;;;;;;2.72;0.85;;;;;;;;;;5039760;28;20048;-53
2022/08/21 13:49:55;;;;;;;2.08;1.00;;;;;;;;;;5050326;28;20088;-56
2022/08/21 13:52:22;;;;;;;4.38;1.10;;;;;;;;;;5046860;28;20041;-54
2022/08/21 13:54:53;;;;;;;2.50;0.90;;;;;;;;;;5052787;28;20057;-56
2022/08/21 13:57:20;;;;;;;3.70;1.15;;;;;;;;;;5052525;28;20124;-53
2022/08/21 13:59:48;;;;;;;2.45;0.80;;;;;;;;;;5052657;28;20106;-52
2022/08/21 14:02:15;;;;;;;7.40;1.48;;;;;;;;;;5052868;28;20048;-53
2022/08/21 14:04:45;;;;;;;3.45;1.38;;;;;;;;;;5052881;28;20049;-55
2022/08/21 14:07:18;;;;;;;3.08;1.10;;;;;;;;;;5052435;28;20060;-53
2022/08/21 14:09:46;;;;;;;3.38;1.25;;;;;;;;;;5052544;28;20481;-56
2022/08/21 14:12:14;;;;;;;2.65;1.13;;;;;;;;;;5052357;28;20041;-53
2022/08/21 14:14:40;;;;;;;2.08;1.10;;;;;;;;;;5052614;28;20382;-55
2022/08/21 14:17:11;;;;;;;4.38;1.40;;;;;;;;;;5052260;28;20478;-56
2022/08/21 14:19:38;;;;;;;1.90;0.80;;;;;;;;;;5045817;28;20156;-53
2022/08/21 14:22:20;;;;;;;4.38;1.63;;;;;;;;;;5052548;28;20079;-55
2022/08/21 14:24:46;;;;;;;2.50;1.05;;;;;;;;;;5052269;28;20481;-52
2022/08/21 14:27:12;;;;;;;1.63;1.10;;;;;;;;;;5051200;28;20400;-53
2022/08/21 14:29:40;;;;;;;3.10;1.10;;;;;;;;;;5052530;28;20059;-53
2022/08/21 14:32:13;;;;;;;1.42;1.00;;;;;;;;;;5051563;28;20164;-56
2022/08/21 14:34:39;;;;;;;2.67;0.98;;;;;;;;;;5052284;28;20049;-56
2022/08/21 14:37:05;;;;;;;3.58;1.00;;;;;;;;;;5052413;28;20055;-57
2022/08/21 14:39:32;;;;;;;2.42;0.77;;;;;;;;;;5046525;28;20378;-56
2022/08/21 14:41:59;;;;;;;2.05;0.98;;;;;;;;;;5051689;28;20057;-52
2022/08/21 14:44:25;;;;;;;3.50;1.10;;;;;;;;;;5052346;28;20502;-56
2022/08/21 14:46:51;;;;;;;3.15;1.00;;;;;;;;;;5052421;28;20369;-55
2022/08/21 14:49:19;;;;;;;2.33;1.00;;;;;;;;;;5052398;28;20049;-53
2022/08/21 14:51:45;;;;;;;2.22;0.95;;;;;;;;;;5054554;28;20500;-56
2022/08/21 14:54:12;;;;;;;2.08;1.23;;;;;;;;;;5055702;28;20045;-54